Aérodrome :
LOGIN :

S'inscrire | Disclaimer

   EN    FR    IT 

 










Légende :    VFR   VFR Marginal   IFR   IFR Intensif   IFR Très Intensif
Visi : 
Plafond : 
>= 8 km
>= 3000ft
5 à 8 km
1000 à 3000 ft
1500m à 5 km
500 à 1000 ft
800 à 1500m
200 à 500 ft
< 800m
< 200 ft
Symboles :   Orages  Brouillard  Fortes neiges  Fortes précipitations  Vent > 20 kt
SIGMETs :   Divers  Orages  Givrage  Turbulence  Onde Orograph.  Cendres Volcan.






- Altitude de l'aérodrome : 779 ft
- Code IATA : CMF


LFLB - Chambery / Aix-Les-Bains

DERNIER METAR :
  • 072200Z AUTO 19003KT CAVOK 14/10 Q1018

METARs EXPIRÉS :
  • 072130Z AUTO 22001KT CAVOK 16/10 Q1018
  • 072100Z AUTO VRB02KT CAVOK 17/10 Q1018
  • 072030Z AUTO VRB02KT CAVOK 17/10 Q1018
  • 072000Z AUTO VRB02KT CAVOK 16/10 Q1018
  • 071930Z AUTO VRB02KT CAVOK 19/11 Q1017

TAF TAF LFLB
Valide du 07 à 12h jusqu'au 08 à 12h UTC


071100Z 0712/0812 35012KT CAVOK
BECMG 0716/0718 VRB02KT



MET'MAP, la Météo Aéronautique d'un coup d'oeil ! - Copyright ORBIFLY Décembre 2007 - Disclaimer

ORBIFLY MET'MAP TEAM :

Programmation & Développement : Alexandra Zaïnal
Sur une idée originale de : Baudouin d'Aumeries
Assistance à la programmation : Marc-Olivier Méhu
Soutien technique & logistique : Manuel Goepfert

Contact : metmap@orbifly.com




SOURCES & CREDITS :

   NOAA